Pickerington, Ohio
Current Conditions -  °F | °C
As of 5:53 AM on Tuesday 21 Oct 2014 (Local Time) from KLHQ Reporting Station
Haze Haze  
Wind Chill: 51°   Ceiling: 1900
Heat Index: 51°   Visibility: 4mi
Dew Point: 48°   Wind: 3mph
Humidity: 89%   Direction: 310°NW
Pressure: 29.89"   Gusts: NA
Location:  39.88°N, 82.75°W
Report Text: KLHQ 210953Z AUTO 31003KT 4SM BR OVC019 11/09 A2989 RMK AO2 RAB0857E12 SLP122 P0001 T01060089
Loading
Personal Weather Stations






























Interactive Weather Map
Tropical Storm Tracking
New forecast layout! Learn more

10-Day Weather Forecast

Advertisements
Track Severe Weather on mobile